Time;durP1;ratioP1;P1;durP2;ratioP2;P2;SDS_P1;SDS_P2;PMS_P1;PMS_P2;Temp;Humidity;BMP_temperature;BMP_pressure;BME280_temperature;BME280_humidity;BME280_pressure;Samples;Min_cycle;Max_cycle;Signal;HPM_P1;HPM_P2
2021/04/17 00:00:49;;;;;;;13.53;5.40;;;;;;;5.01;74.58;100603.38;5020602;27;97133;-75
2021/04/17 00:03:14;;;;;;;14.50;5.80;;;;;;;5.00;74.76;100605.09;5049560;27;97425;-75
2021/04/17 00:05:40;;;;;;;11.17;5.17;;;;;;;4.95;75.18;100605.16;5050238;27;97792;-76
2021/04/17 00:08:06;;;;;;;13.77;5.47;;;;;;;5.01;75.10;100606.84;5067021;27;97075;-76
2021/04/17 00:10:31;;;;;;;14.70;5.47;;;;;;;5.02;74.92;100599.91;5067833;27;96893;-75
2021/04/17 00:12:57;;;;;;;8.80;5.33;;;;;;;4.93;74.89;100603.41;5030076;27;100273;-80
2021/04/17 00:15:23;;;;;;;14.83;6.27;;;;;;;4.94;74.94;100598.19;5042792;27;101314;-77
2021/04/17 00:17:48;;;;;;;10.57;5.53;;;;;;;4.99;74.97;100593.81;5067638;27;96907;-76
2021/04/17 00:20:14;;;;;;;9.83;5.23;;;;;;;5.02;74.91;100597.28;5068607;27;96878;-76
2021/04/17 00:22:40;;;;;;;11.20;5.83;;;;;;;4.98;74.94;100591.25;5046920;27;100889;-76
2021/04/17 00:25:06;;;;;;;13.53;5.37;;;;;;;4.89;75.08;100594.78;5046988;27;101079;-76
2021/04/17 00:27:32;;;;;;;15.27;6.27;;;;;;;4.86;75.16;100592.19;5066776;27;97243;-76
2021/04/17 00:29:57;;;;;;;11.27;5.23;;;;;;;4.93;75.17;100591.28;5047994;27;97330;-79
2021/04/17 00:32:23;;;;;;;16.53;5.50;;;;;;;4.89;74.91;100597.38;5045414;27;101084;-75
2021/04/17 00:34:48;;;;;;;9.30;5.10;;;;;;;4.90;75.01;100595.63;5047686;27;101293;-76
2021/04/17 00:37:14;;;;;;;13.10;6.50;;;;;;;4.87;74.99;100591.31;5046235;27;96965;-75
2021/04/17 00:39:39;;;;;;;11.80;5.20;;;;;;;4.87;75.01;100588.72;5033287;27;96982;-76
2021/04/17 00:42:05;;;;;;;10.03;4.93;;;;;;;4.90;74.90;100567.03;5034438;27;98476;-76
2021/04/17 00:44:33;;;;;;;12.67;6.10;;;;;;;4.88;75.22;100582.63;5047875;27;101529;-76
2021/04/17 00:47:00;;;;;;;13.70;5.70;;;;;;;4.87;75.51;100575.72;5066245;27;96809;-84
2021/04/17 00:49:25;;;;;;;11.17;5.30;;;;;;;4.90;74.95;100588.69;5050610;27;97110;-75
2021/04/17 00:51:51;;;;;;;11.13;4.47;;;;;;;4.87;75.36;100583.50;5046112;27;101403;-76
2021/04/17 00:54:17;;;;;;;11.07;5.87;;;;;;;4.89;75.75;100584.38;5034695;27;101530;-76
2021/04/17 00:56:43;;;;;;;9.17;5.03;;;;;;;4.84;75.27;100588.75;5053417;27;96765;-75
2021/04/17 00:59:09;;;;;;;11.60;5.47;;;;;;;4.93;75.00;100590.41;5070087;27;97213;-75
2021/04/17 01:01:34;;;;;;;13.07;5.97;;;;;;;4.91;75.27;100587.81;5049770;27;101159;-77
2021/04/17 01:04:15;;;;;;;12.53;6.17;;;;;;;4.94;75.38;100595.59;5052938;27;97424;-81
2021/04/17 01:07:19;;;;;;;11.97;6.17;;;;;;;4.91;75.16;100580.00;5053431;27;96782;-76
2021/04/17 01:09:46;;;;;;;11.10;6.17;;;;;;;4.91;74.73;100589.56;4995075;28;96936;-76
2021/04/17 01:12:16;;;;;;;10.50;4.93;;;;;;;4.85;74.81;100590.44;5062773;27;97904;-78
2021/04/17 01:14:50;;;;;;;9.00;5.87;;;;;;;4.91;74.87;100594.75;5035769;27;101738;-76
2021/04/17 01:17:18;;;;;;;10.80;5.17;;;;;;;4.88;74.68;100597.38;5052019;27;97177;-76
2021/04/17 01:20:06;;;;;;;12.27;5.13;;;;;;;4.84;74.94;100591.34;5049566;27;97186;-75
2021/04/17 01:22:32;;;;;;;10.70;5.27;;;;;;;4.84;74.86;100587.88;5049931;27;97550;-77
2021/04/17 01:25:05;;;;;;;8.33;4.53;;;;;;;4.84;74.71;100591.34;5062549;27;98468;-76
2021/04/17 01:27:31;;;;;;;9.70;4.70;;;;;;;4.85;74.46;100584.38;5036107;27;97166;-76
2021/04/17 01:29:57;;;;;;;9.67;4.63;;;;;;;4.91;74.76;100586.94;5070057;27;98055;-77
2021/04/17 01:32:23;;;;;;;11.47;4.90;;;;;;;4.93;74.22;100593.88;5048859;27;100699;-78
2021/04/17 01:34:50;;;;;;;8.60;4.63;;;;;;;4.90;74.21;100586.09;5049623;27;101033;-76
2021/04/17 01:37:16;;;;;;;8.73;4.83;;;;;;;4.89;74.56;100586.97;5044505;27;97085;-76
2021/04/17 01:39:42;;;;;;;8.13;4.83;;;;;;;4.86;74.40;100588.72;5063962;27;98194;-76
2021/04/17 01:42:10;;;;;;;10.80;4.70;;;;;;;4.83;74.53;100597.44;5055978;27;97966;-76
2021/04/17 01:44:40;;;;;;;11.40;5.13;;;;;;;4.80;74.69;100593.94;5049571;27;100525;-76
2021/04/17 01:47:08;;;;;;;13.70;5.27;;;;;;;4.89;74.49;100594.78;5030919;27;97158;-76
2021/04/17 01:49:37;;;;;;;10.37;5.27;;;;;;;4.89;74.63;100599.97;5047955;27;96868;-75
2021/04/17 01:52:03;;;;;;;11.53;5.23;;;;;;;4.87;74.93;100593.91;5031425;27;102296;-83
2021/04/17 01:54:40;;;;;;;9.80;5.40;;;;;;;4.81;74.70;100600.91;5069315;27;97879;-79
2021/04/17 01:57:07;;;;;;;9.50;5.70;;;;;;;4.78;74.82;100600.94;5048858;27;97257;-76
2021/04/17 01:59:34;;;;;;;14.83;6.07;;;;;;;4.81;74.99;100590.50;5049117;27;97321;-79
2021/04/17 02:02:00;;;;;;;10.90;5.60;;;;;;;4.71;74.63;100587.97;5031666;27;101508;-79
2021/04/17 02:04:26;;;;;;;9.37;5.83;;;;;;;4.69;75.04;100589.69;5047707;27;101313;-75
2021/04/17 02:06:51;;;;;;;17.80;6.33;;;;;;;4.81;75.02;100588.75;5031702;27;97897;-76
2021/04/17 02:09:17;;;;;;;9.17;5.97;;;;;;;4.74;75.12;100585.34;5031304;27;97549;-75
2021/04/17 02:11:43;;;;;;;11.03;6.03;;;;;;;4.70;75.33;100582.75;5023301;27;101028;-76
2021/04/17 02:14:08;;;;;;;14.50;7.43;;;;;;;4.76;75.29;100590.50;5045691;27;101191;-75
2021/04/17 02:16:46;;;;;;;20.53;7.67;;;;;;;4.74;75.22;100581.84;5040106;27;97164;-76
2021/04/17 02:19:32;;;;;;;14.73;7.40;;;;;;;4.66;75.41;100587.13;5069835;27;96913;-79
2021/04/17 02:21:58;;;;;;;17.10;7.03;;;;;;;4.73;75.20;100588.78;5052312;27;101120;-76
2021/04/17 02:24:28;;;;;;;18.53;7.80;;;;;;;4.67;75.20;100586.22;5034456;27;101272;-76
2021/04/17 02:26:54;;;;;;;20.03;7.87;;;;;;;4.65;75.36;100587.09;5051727;27;97231;-75
2021/04/17 02:29:20;;;;;;;17.43;8.00;;;;;;;4.64;75.57;100583.66;5034318;27;97427;-77
2021/04/17 02:31:46;;;;;;;17.73;7.23;;;;;;;4.61;75.39;100582.81;5051841;27;97952;-75
2021/04/17 02:34:12;;;;;;;15.90;8.13;;;;;;;4.62;75.77;100582.78;5068314;27;97453;-76
2021/04/17 02:36:37;;;;;;;17.37;7.40;;;;;;;4.60;76.01;100581.09;5051853;27;97204;-76
2021/04/17 02:39:04;;;;;;;16.50;7.60;;;;;;;4.68;75.59;100574.09;5034899;27;97020;-82
2021/04/17 02:41:30;;;;;;;13.93;7.27;;;;;;;4.68;75.71;100571.47;5039639;27;101618;-76
2021/04/17 02:43:56;;;;;;;14.30;7.03;;;;;;;4.68;75.28;100581.88;5048161;27;98037;-75
2021/04/17 02:46:22;;;;;;;12.93;6.67;;;;;;;4.69;75.45;100575.84;5049360;27;98860;-75
2021/04/17 02:48:47;;;;;;;18.33;7.30;;;;;;;4.69;75.72;100576.69;5035432;27;97017;-76
2021/04/17 02:51:13;;;;;;;16.83;7.30;;;;;;;4.71;75.47;100569.75;5069479;27;98449;-75
2021/04/17 02:53:38;;;;;;;21.70;7.43;;;;;;;4.70;75.42;100568.00;5030871;27;101155;-76
2021/04/17 02:56:04;;;;;;;15.43;7.37;;;;;;;4.66;75.85;100570.66;5030111;27;98205;-80
2021/04/17 02:58:30;;;;;;;23.07;7.33;;;;;;;4.60;75.83;100565.50;5068561;27;96769;-76
2021/04/17 03:00:55;;;;;;;17.97;7.83;;;;;;;4.65;75.72;100574.97;5051379;27;100896;-76
2021/04/17 03:03:21;;;;;;;14.63;7.73;;;;;;;4.69;75.58;100568.03;5050993;27;98442;-76
2021/04/17 03:05:47;;;;;;;14.23;6.90;;;;;;;4.74;75.63;100566.25;5050942;27;97091;-75
2021/04/17 03:08:13;;;;;;;17.93;7.50;;;;;;;4.66;75.55;100571.50;5067535;27;96891;-76
2021/04/17 03:10:39;;;;;;;16.37;7.07;;;;;;;4.70;75.63;100562.81;5050071;27;101196;-76
2021/04/17 03:13:05;;;;;;;17.67;7.50;;;;;;;4.66;75.60;100561.09;5047410;27;97805;-82
2021/04/17 03:15:31;;;;;;;15.60;7.50;;;;;;;4.70;75.80;100569.75;5049360;27;97265;-75
2021/04/17 03:17:57;;;;;;;18.07;7.73;;;;;;;4.73;75.39;100564.53;5051019;27;97166;-79
2021/04/17 03:20:23;;;;;;;15.33;7.93;;;;;;;4.71;75.12;100567.16;5050123;27;101199;-76
2021/04/17 03:22:49;;;;;;;18.37;7.60;;;;;;;4.67;75.50;100560.22;5068505;27;98049;-76
2021/04/17 03:25:15;;;;;;;16.20;7.97;;;;;;;4.67;75.75;100569.78;5049983;27;97107;-77
2021/04/17 03:27:41;;;;;;;19.83;8.30;;;;;;;4.68;75.29;100561.97;5068429;27;97214;-76
2021/04/17 03:30:12;;;;;;;16.27;7.87;;;;;;;4.59;75.42;100566.34;5067594;27;98861;-79
2021/04/17 03:32:38;;;;;;;19.37;8.03;;;;;;;4.56;75.99;100562.03;5051051;27;98109;-76
2021/04/17 03:35:07;;;;;;;20.43;8.40;;;;;;;4.61;75.77;100575.00;5036789;27;96819;-81
2021/04/17 03:37:32;;;;;;;16.07;7.03;;;;;;;4.64;75.82;100564.59;5051719;27;98103;-76
2021/04/17 03:39:58;;;;;;;14.63;8.10;;;;;;;4.59;75.93;100572.41;5048718;27;99932;-75
2021/04/17 03:42:23;;;;;;;16.50;7.60;;;;;;;4.65;75.79;100566.31;5058139;27;98044;-75
2021/04/17 03:44:49;;;;;;;14.87;6.80;;;;;;;4.68;75.42;100574.97;5050120;27;96995;-75
2021/04/17 03:47:14;;;;;;;19.60;8.37;;;;;;;4.63;75.64;100570.66;5056383;27;98331;-75
2021/04/17 03:49:40;;;;;;;17.03;8.13;;;;;;;4.59;75.87;100562.00;5066516;27;98050;-75
2021/04/17 03:52:06;;;;;;;21.40;8.13;;;;;;;4.70;75.69;100562.81;5048324;27;97944;-81
2021/04/17 03:54:32;;;;;;;14.93;8.07;;;;;;;4.71;75.68;100568.88;5048484;27;96958;-75
2021/04/17 03:56:57;;;;;;;14.70;7.90;;;;;;;4.72;75.18;100563.66;5066713;27;97254;-77
2021/04/17 03:59:23;;;;;;;15.17;8.23;;;;;;;4.70;75.09;100574.94;5043387;27;101744;-76
2021/04/17 04:01:48;;;;;;;18.30;9.17;;;;;;;4.60;75.71;100566.34;5049137;27;101776;-76
2021/04/17 04:04:14;;;;;;;14.47;8.37;;;;;;;4.60;75.88;100568.94;5048098;27;97067;-75
2021/04/17 04:06:40;;;;;;;13.67;8.07;;;;;;;4.66;75.74;100562.84;5028656;27;97031;-76
2021/04/17 04:09:06;;;;;;;19.20;8.10;;;;;;;4.71;75.41;100571.47;5041356;27;101544;-80
2021/04/17 04:11:31;;;;;;;13.17;8.10;;;;;;;4.65;75.55;100569.75;5038280;27;97936;-76
2021/04/17 04:13:58;;;;;;;19.03;8.77;;;;;;;4.65;75.94;100576.69;5027735;27;97374;-79
2021/04/17 04:16:23;;;;;;;15.77;8.60;;;;;;;4.61;75.71;100573.25;5028264;27;97651;-78
2021/04/17 04:18:49;;;;;;;16.37;9.17;;;;;;;4.61;75.60;100581.06;5048833;27;100942;-75
2021/04/17 04:21:14;;;;;;;15.87;7.93;;;;;;;4.62;76.08;100581.94;5031178;27;101722;-75
2021/04/17 04:23:40;;;;;;;20.53;8.60;;;;;;;4.51;75.82;100585.47;5048499;27;97489;-78
2021/04/17 04:26:05;;;;;;;13.33;8.33;;;;;;;4.52;76.11;100586.31;5048987;27;97087;-82
2021/04/17 04:28:31;;;;;;;19.07;8.87;;;;;;;4.53;76.14;100594.09;5034068;27;97921;-75
2021/04/17 04:30:57;;;;;;;16.40;8.33;;;;;;;4.58;75.97;100594.09;5060424;27;98373;-76
2021/04/17 04:33:22;;;;;;;17.57;9.43;;;;;;;4.57;75.74;100591.47;5033419;27;97331;-75
2021/04/17 04:35:49;;;;;;;20.37;8.77;;;;;;;4.60;75.76;100601.91;5045236;27;97275;-75
2021/04/17 04:38:15;;;;;;;23.43;8.57;;;;;;;4.58;76.01;100601.03;5043529;27;101075;-74
2021/04/17 04:40:41;;;;;;;18.50;8.73;;;;;;;4.61;75.92;100604.47;5048723;27;100976;-76
2021/04/17 04:43:08;;;;;;;14.17;8.63;;;;;;;4.58;75.51;100603.63;5065382;27;97291;-81
2021/04/17 04:45:33;;;;;;;14.03;8.13;;;;;;;4.58;76.14;100612.28;5045178;27;97240;-76
2021/04/17 04:47:59;;;;;;;17.63;8.40;;;;;;;4.67;76.15;100603.56;5016639;27;758966;-76
2021/04/17 04:50:24;;;;;;;14.43;8.70;;;;;;;4.67;75.71;100598.38;5044370;27;101845;-76
2021/04/17 04:52:50;;;;;;;16.20;8.07;;;;;;;4.61;75.70;100607.06;5046346;27;97084;-76
2021/04/17 04:55:15;;;;;;;17.53;8.93;;;;;;;4.61;76.12;100601.00;5047762;27;96980;-76
2021/04/17 04:57:41;;;;;;;19.67;8.33;;;;;;;4.65;75.87;100606.16;5048855;27;100864;-76
2021/04/17 05:00:07;;;;;;;13.63;7.67;;;;;;;4.64;75.77;100612.25;5066679;27;97884;-82
2021/04/17 05:02:33;;;;;;;16.37;8.77;;;;;;;4.63;75.34;100607.06;5049697;27;97208;-76
2021/04/17 05:04:59;;;;;;;17.20;8.43;;;;;;;4.59;75.64;100610.53;5040065;27;97242;-76
2021/04/17 05:07:24;;;;;;;13.07;7.70;;;;;;;4.65;76.17;100613.13;5047961;27;97844;-76
2021/04/17 05:09:50;;;;;;;19.33;8.23;;;;;;;4.66;75.57;100615.72;5067035;27;98029;-76
2021/04/17 05:12:15;;;;;;;14.00;8.53;;;;;;;4.64;75.66;100616.59;5035758;27;97067;-76
2021/04/17 05:14:41;;;;;;;13.03;7.67;;;;;;;4.59;76.00;100614.00;5028825;27;97200;-77
2021/04/17 05:17:06;;;;;;;16.97;8.63;;;;;;;4.62;75.73;100614.00;5043922;27;101357;-82
2021/04/17 05:19:32;;;;;;;12.30;7.80;;;;;;;4.62;76.00;100614.00;5029025;27;101718;-77
2021/04/17 05:21:57;;;;;;;13.80;8.10;;;;;;;4.60;75.96;100612.28;5044054;27;97444;-78
2021/04/17 05:24:23;;;;;;;17.47;8.60;;;;;;;4.66;75.53;100615.72;5065923;27;97301;-76
2021/04/17 05:26:48;;;;;;;22.00;9.33;;;;;;;4.68;76.49;100613.09;5049270;27;100989;-76
2021/04/17 05:29:14;;;;;;;18.67;9.23;;;;;;;4.70;75.91;100616.56;5031379;27;99922;-76
2021/04/17 05:31:40;;;;;;;17.43;9.87;;;;;;;4.67;76.07;100617.44;5036562;27;96765;-76
2021/04/17 05:34:07;;;;;;;12.57;8.63;;;;;;;4.68;76.15;100616.59;5051516;27;97531;-82
2021/04/17 05:36:33;;;;;;;17.30;9.77;;;;;;;4.82;75.85;100613.88;5061806;27;98358;-77
2021/04/17 05:38:58;;;;;;;18.70;10.73;;;;;;;4.80;75.15;100609.56;5050972;27;97895;-76
2021/04/17 05:41:25;;;;;;;17.87;9.70;;;;;;;4.70;75.75;100614.81;5035110;27;96961;-76
2021/04/17 05:43:50;;;;;;;19.07;10.07;;;;;;;4.64;75.84;100621.78;5069880;27;97063;-76
2021/04/17 05:46:16;;;;;;;15.20;9.50;;;;;;;4.66;76.04;100617.47;5037697;27;99087;-76
2021/04/17 05:48:41;;;;;;;18.50;10.03;;;;;;;4.84;75.53;100613.88;5038502;27;101153;-76
2021/04/17 05:51:07;;;;;;;18.23;8.90;;;;;;;4.76;75.84;100613.91;5054491;27;96735;-81
2021/04/17 05:53:32;;;;;;;19.27;9.57;;;;;;;4.74;75.99;100615.66;5084189;27;99231;-77
2021/04/17 05:55:59;;;;;;;18.37;9.10;;;;;;;4.79;76.50;100619.09;5054644;27;97398;-77
2021/04/17 05:58:24;;;;;;;16.37;9.90;;;;;;;4.78;76.01;100613.94;5071980;27;98329;-76
2021/04/17 06:00:50;;;;;;;20.47;10.47;;;;;;;4.80;75.92;100612.16;5054539;27;96981;-76
2021/04/17 06:03:16;;;;;;;13.33;9.37;;;;;;;4.80;75.82;100613.06;5051765;27;97368;-76
2021/04/17 06:05:41;;;;;;;17.93;11.73;;;;;;;4.87;75.63;100617.31;5037399;27;97963;-76
2021/04/17 06:08:07;;;;;;;19.70;10.80;;;;;;;4.91;75.38;100608.63;5051950;27;101179;-83
2021/04/17 06:10:32;;;;;;;20.20;10.63;;;;;;;4.94;75.60;100611.19;5049820;27;97841;-77
2021/04/17 06:12:58;;;;;;;18.23;9.77;;;;;;;5.02;75.48;100615.50;5073352;27;97167;-77
2021/04/17 06:15:24;;;;;;;16.67;10.57;;;;;;;4.98;75.72;100614.66;5064816;27;101360;-75
2021/04/17 06:17:50;;;;;;;17.80;10.50;;;;;;;4.95;76.01;100609.50;5054566;27;101803;-76
2021/04/17 06:20:16;;;;;;;19.23;10.50;;;;;;;4.96;75.94;100617.28;5054304;27;97111;-78
2021/04/17 06:22:41;;;;;;;20.37;12.07;;;;;;;4.99;76.02;100609.44;5046738;27;97144;-74
2021/04/17 06:25:09;;;;;;;17.87;10.60;;;;;;;4.98;76.07;100612.94;5047027;27;98518;-80
2021/04/17 06:27:34;;;;;;;22.70;11.60;;;;;;;5.05;75.98;100613.75;5026825;27;101084;-74
2021/04/17 06:30:01;;;;;;;21.20;11.13;;;;;;;5.05;75.84;100618.09;5062685;27;97420;-75
2021/04/17 06:32:26;;;;;;;19.10;10.23;;;;;;;4.99;76.01;100613.78;5058562;27;96792;-74
2021/04/17 06:34:52;;;;;;;21.53;10.97;;;;;;;5.10;76.24;100624.13;5060200;27;98445;-74
2021/04/17 06:37:17;;;;;;;20.70;10.67;;;;;;;5.06;76.02;100614.59;5063096;27;98030;-75
2021/04/17 06:39:43;;;;;;;25.37;11.27;;;;;;;5.04;75.72;100619.84;5063194;27;96874;-75
2021/04/17 06:42:12;;;;;;;18.50;11.27;;;;;;;4.96;75.90;100621.63;5034097;27;97248;-79
2021/04/17 06:44:41;;;;;;;16.80;10.67;;;;;;;5.09;75.66;100620.66;5040968;27;97961;-74
2021/04/17 06:47:07;;;;;;;18.17;10.73;;;;;;;5.13;75.36;100613.69;5061860;27;97371;-75
2021/04/17 06:49:33;;;;;;;22.60;12.53;;;;;;;5.07;75.49;100624.16;5030916;27;98004;-76
2021/04/17 06:52:01;;;;;;;18.67;11.13;;;;;;;5.07;75.87;100634.56;5045908;27;96856;-75
2021/04/17 06:54:27;;;;;;;21.20;11.67;;;;;;;5.11;76.06;100628.44;5044288;27;101244;-75
2021/04/17 06:56:52;;;;;;;16.40;10.93;;;;;;;5.07;76.02;100626.75;5041347;27;101507;-75
2021/04/17 06:59:18;;;;;;;20.00;11.83;;;;;;;5.15;75.44;100633.63;5043112;27;97351;-75
2021/04/17 07:01:43;;;;;;;22.43;12.40;;;;;;;5.18;75.60;100625.81;5026543;27;97049;-75
2021/04/17 07:04:09;;;;;;;20.50;12.03;;;;;;;5.17;75.41;100618.00;5044157;27;100971;-82
2021/04/17 07:06:36;;;;;;;22.00;12.17;;;;;;;5.23;75.01;100628.34;5066225;27;98190;-77
2021/04/17 07:09:03;;;;;;;45.97;15.83;;;;;;;5.25;75.56;100624.03;5062989;27;97283;-74
2021/04/17 07:11:29;;;;;;;33.40;14.60;;;;;;;5.30;75.09;100626.59;5043640;27;97385;-75
2021/04/17 07:14:16;;;;;;;23.93;14.17;;;;;;;5.36;74.91;100629.16;5039727;27;101042;-75
2021/04/17 07:17:04;;;;;;;24.57;14.87;;;;;;;5.28;75.21;100625.72;5064940;27;97642;-76
2021/04/17 07:19:54;;;;;;;75.53;16.83;;;;;;;5.41;75.13;100615.22;5061073;27;97099;-77
2021/04/17 07:22:31;;;;;;;41.40;13.80;;;;;;;5.55;74.45;100622.91;5044408;27;97250;-75
2021/04/17 07:25:06;;;;;;;26.33;12.63;;;;;;;5.38;74.84;100622.16;5021732;27;100882;-80
2021/04/17 07:27:44;;;;;;;32.07;14.47;;;;;;;5.40;75.66;100621.28;5059034;27;101659;-77
2021/04/17 07:30:16;;;;;;;53.67;17.03;;;;;;;5.50;74.85;100626.41;5059785;27;97419;-76
2021/04/17 07:32:41;;;;;;;25.13;13.23;;;;;;;5.39;75.49;100629.13;5059037;27;97208;-76
2021/04/17 07:35:15;;;;;;;33.87;14.03;;;;;;;5.49;75.41;100635.13;5041901;27;101068;-75
2021/04/17 07:37:43;;;;;;;36.43;15.00;;;;;;;5.56;75.63;100634.19;5060460;27;98324;-75
2021/04/17 07:40:15;;;;;;;26.23;14.23;;;;;;;5.74;74.59;100630.56;5059840;27;97323;-81
2021/04/17 07:42:45;;;;;;;58.28;17.77;;;;;;;5.63;74.54;100634.13;5038290;27;97376;-75
2021/04/17 07:45:24;;;;;;;34.73;17.23;;;;;;;5.54;75.13;100636.81;5045886;27;101405;-79
2021/04/17 07:47:50;;;;;;;48.20;16.50;;;;;;;5.59;75.42;100642.00;5060926;27;102830;-76
2021/04/17 07:50:17;;;;;;;34.07;14.40;;;;;;;5.53;75.21;100644.66;5067232;27;97366;-80
2021/04/17 07:52:43;;;;;;;32.03;15.67;;;;;;;5.52;75.44;100640.28;5026241;27;97254;-79
2021/04/17 07:55:11;;;;;;;29.00;14.40;;;;;;;5.58;74.82;100640.25;5050995;27;101339;-78
2021/04/17 07:57:46;;;;;;;40.20;16.57;;;;;;;5.67;74.84;100628.03;5028343;27;101461;-78
2021/04/17 08:00:17;;;;;;;63.43;17.73;;;;;;;5.76;74.72;100634.00;5051423;27;97544;-75
2021/04/17 08:02:46;;;;;;;38.90;14.33;;;;;;;5.66;75.06;100638.44;5048774;27;97418;-77
2021/04/17 08:05:13;;;;;;;32.53;14.23;;;;;;;5.82;74.38;100652.22;5049161;27;100276;-75
2021/04/17 08:07:40;;;;;;;29.43;13.90;;;;;;;5.75;75.14;100643.56;5047105;27;98070;-76
2021/04/17 08:10:09;;;;;;;29.67;14.70;;;;;;;5.80;74.52;100640.94;5049382;27;96918;-75
2021/04/17 08:12:36;;;;;;;70.57;20.63;;;;;;;5.86;74.61;100639.13;5051594;27;97268;-78
2021/04/17 08:15:04;;;;;;;49.27;15.97;;;;;;;5.87;73.96;100646.03;5064586;27;98286;-78
2021/04/17 08:17:30;;;;;;;34.43;14.27;;;;;;;5.78;74.41;100650.50;5047928;27;100976;-76
2021/04/17 08:19:57;;;;;;;73.33;17.87;;;;;;;5.77;74.45;100649.63;5046263;27;97935;-78
2021/04/17 08:22:24;;;;;;;44.87;15.10;;;;;;;5.89;73.96;100652.13;5068487;27;97759;-81
2021/04/17 08:24:51;;;;;;;34.30;14.23;;;;;;;5.82;74.20;100649.59;5049664;27;100793;-75
2021/04/17 08:27:17;;;;;;;39.27;15.40;;;;;;;5.90;74.56;100650.38;5031170;27;101492;-78
2021/04/17 08:29:46;;;;;;;34.13;13.37;;;;;;;5.94;74.41;100646.03;5037285;27;97021;-84
2021/04/17 08:32:35;;;;;;;33.80;15.50;;;;;;;6.00;73.75;100651.19;5050362;27;97101;-74
2021/04/17 08:35:15;;;;;;;43.80;15.23;;;;;;;6.06;73.74;100645.91;5053692;27;101457;-76
2021/04/17 08:37:51;;;;;;;41.87;14.23;;;;;;;6.24;72.76;100637.03;5033438;27;101239;-76
2021/04/17 08:40:32;;;;;;;50.13;14.83;;;;;;;6.37;73.04;100630.81;5068314;27;97878;-79
2021/04/17 08:42:58;;;;;;;31.90;14.40;;;;;;;6.25;73.11;100636.13;5066657;27;96847;-78
2021/04/17 08:45:24;;;;;;;27.83;13.87;;;;;;;6.28;73.42;100638.72;5049420;27;100030;-78
2021/04/17 08:47:56;;;;;;;27.13;13.97;;;;;;;6.38;73.18;100629.06;5030241;27;100637;-76
2021/04/17 08:50:40;;;;;;;33.08;15.25;;;;;;;6.61;73.01;100639.22;5066206;27;97200;-77
2021/04/17 08:53:13;;;;;;;47.10;17.17;;;;;;;6.43;72.90;100632.44;5047094;27;98794;-77
2021/04/17 08:55:39;;;;;;;24.73;14.10;;;;;;;6.47;72.59;100628.94;5060348;27;98041;-75
2021/04/17 08:58:24;;;;;;;46.38;16.05;;;;;;;6.48;72.49;100630.66;5045744;27;98647;-81
2021/04/17 09:00:53;;;;;;;41.90;15.10;;;;;;;6.56;72.13;100634.03;5020581;27;96835;-76
2021/04/17 09:03:39;;;;;;;109.03;17.90;;;;;;;6.58;72.34;100630.53;5060754;27;98449;-78
2021/04/17 09:06:27;;;;;;;38.50;15.40;;;;;;;6.58;72.14;100634.88;5058579;27;98406;-78
2021/04/17 09:09:15;;;;;;;47.00;16.50;;;;;;;6.69;71.87;100632.13;5048340;27;100138;-78
2021/04/17 09:12:01;;;;;;;29.97;17.10;;;;;;;6.57;72.16;100631.41;5037315;27;96824;-78
2021/04/17 09:14:36;;;;;;;49.87;17.33;;;;;;;6.74;72.14;100632.94;5042938;27;97419;-78
2021/04/17 09:17:05;;;;;;;46.53;15.20;;;;;;;6.85;71.71;100630.19;5043376;27;101517;-78
2021/04/17 09:19:40;;;;;;;53.07;16.23;;;;;;;6.70;72.04;100629.50;5051652;27;101442;-78
2021/04/17 09:22:24;;;;;;;24.83;14.20;;;;;;;6.76;72.53;100631.16;5055459;27;97267;-77
2021/04/17 09:25:12;;;;;;;37.95;16.15;;;;;;;6.90;72.17;100637.06;5070944;27;97407;-78
2021/04/17 09:27:43;;;;;;;33.42;15.48;;;;;;;6.90;71.56;100631.84;5049543;27;101852;-78
2021/04/17 09:30:14;;;;;;;31.10;14.73;;;;;;;6.96;70.72;100638.72;5072512;27;97885;-77
2021/04/17 09:32:52;;;;;;;41.53;14.30;;;;;;;6.96;71.28;100636.13;5081568;27;97197;-78
2021/04/17 09:35:20;;;;;;;27.98;13.95;;;;;;;6.79;71.46;100638.97;5042622;27;96871;-77
2021/04/17 09:37:48;;;;;;;27.40;13.77;;;;;;;6.75;71.65;100632.06;5051260;27;101960;-78
2021/04/17 09:40:14;;;;;;;26.43;13.33;;;;;;;6.68;71.73;100628.66;5062609;27;97953;-78
2021/04/17 09:42:40;;;;;;;26.33;14.57;;;;;;;6.87;71.26;100637.13;5050439;27;96861;-77
2021/04/17 09:45:08;;;;;;;24.02;13.38;;;;;;;6.84;72.09;100626.72;5026461;27;96808;-76
2021/04/17 09:47:34;;;;;;;23.37;12.83;;;;;;;7.03;70.47;100624.69;5038497;27;97950;-78
2021/04/17 09:50:00;;;;;;;31.17;13.43;;;;;;;7.04;70.25;100621.22;5042344;27;97943;-78
2021/04/17 09:52:27;;;;;;;23.10;11.80;;;;;;;7.14;70.58;100625.41;5063038;27;97348;-77
2021/04/17 09:54:56;;;;;;;25.37;13.83;;;;;;;7.13;71.14;100615.00;5063731;27;97171;-77
2021/04/17 09:57:22;;;;;;;33.60;13.80;;;;;;;7.10;70.94;100609.78;5065478;27;101656;-77
2021/04/17 10:00:01;;;;;;;46.57;13.23;;;;;;;7.23;70.53;100613.97;5067111;27;101029;-77
2021/04/17 10:02:48;;;;;;;31.95;12.95;;;;;;;7.42;69.63;100618.00;5051198;27;97082;-77
2021/04/17 10:05:15;;;;;;;27.92;12.35;;;;;;;7.34;70.35;100611.19;5040244;27;97136;-78
2021/04/17 10:07:42;;;;;;;22.37;11.23;;;;;;;7.46;69.18;100603.13;5069862;27;99295;-77
2021/04/17 10:10:09;;;;;;;27.63;11.05;;;;;;;7.35;69.50;100603.31;5071005;27;97973;-72
2021/04/17 10:12:54;;;;;;;23.08;12.32;;;;;;;7.42;69.20;100610.16;5070308;27;96746;-73
2021/04/17 10:15:22;;;;;;;21.27;11.82;;;;;;;7.57;69.71;100610.81;5071518;27;96647;-73
2021/04/17 10:17:49;;;;;;;20.75;11.25;;;;;;;7.70;69.08;100605.31;5050122;27;100481;-74
2021/04/17 10:20:16;;;;;;;21.90;11.43;;;;;;;7.72;68.76;100605.31;5035898;27;99996;-74
2021/04/17 10:22:49;;;;;;;21.90;11.00;;;;;;;7.57;69.15;100613.41;5070414;27;96684;-74
2021/04/17 10:25:38;;;;;;;19.67;11.00;;;;;;;7.59;69.72;100606.38;5052988;27;97123;-73
2021/04/17 10:28:14;;;;;;;21.65;11.70;;;;;;;7.43;69.48;100604.06;5053741;27;97419;-74
2021/04/17 10:30:42;;;;;;;31.20;14.55;;;;;;;7.56;69.41;100604.69;5069588;27;101983;-74
2021/04/17 10:33:15;;;;;;;29.70;14.45;;;;;;;7.64;69.47;100601.97;5053180;27;97311;-74
2021/04/17 10:35:41;;;;;;;26.70;11.85;;;;;;;7.63;69.36;100602.84;5070678;27;96844;-74
2021/04/17 10:38:06;;;;;;;24.40;12.63;;;;;;;7.53;69.99;100601.28;5053026;27;101234;-74
2021/04/17 10:40:32;;;;;;;24.05;12.32;;;;;;;7.64;69.15;100604.56;5070071;27;98090;-74
2021/04/17 10:43:05;;;;;;;23.35;11.52;;;;;;;7.56;68.73;100599.47;5035920;27;97186;-73
2021/04/17 10:45:30;;;;;;;29.73;13.27;;;;;;;7.50;69.00;100602.19;5043613;27;97027;-72
2021/04/17 10:47:57;;;;;;;32.25;15.00;;;;;;;7.45;69.33;100596.19;5048667;27;101087;-72
2021/04/17 10:50:24;;;;;;;30.27;13.75;;;;;;;7.42;69.41;100602.34;5048809;27;101234;-72
2021/04/17 10:53:08;;;;;;;25.48;12.13;;;;;;;7.51;69.37;100600.47;5048586;27;97138;-72
2021/04/17 10:55:41;;;;;;;21.65;12.43;;;;;;;7.42;69.54;100598.88;5048982;27;97507;-72
2021/04/17 10:58:22;;;;;;;19.98;12.63;;;;;;;7.44;69.14;100594.47;5048879;27;100079;-72
2021/04/17 11:01:01;;;;;;;26.25;12.70;;;;;;;7.63;68.17;100593.25;5036113;27;100343;-73
2021/04/17 11:03:39;;;;;;;27.23;12.43;;;;;;;7.57;68.23;100596.00;5049102;27;97035;-72
2021/04/17 11:06:15;;;;;;;22.70;11.57;;;;;;;7.61;68.16;100591.56;5048555;27;96739;-73
2021/04/17 11:08:42;;;;;;;24.13;10.85;;;;;;;7.56;68.56;100596.00;5041937;27;98587;-73
2021/04/17 11:11:16;;;;;;;21.52;11.00;;;;;;;7.62;68.53;100598.50;5069781;27;97430;-74
2021/04/17 11:13:43;;;;;;;20.77;10.75;;;;;;;7.81;70.04;100599.91;5048381;27;97780;-71
2021/04/17 11:16:11;;;;;;;24.85;11.02;;;;;;;8.22;69.12;100592.16;5035889;27;96869;-71
2021/04/17 11:18:42;;;;;;;21.85;12.32;;;;;;;8.37;67.48;100597.06;5038364;27;97945;-72
2021/04/17 11:21:10;;;;;;;20.95;12.40;;;;;;;8.38;67.74;100594.47;5049434;27;98339;-73
2021/04/17 11:23:45;;;;;;;18.75;10.43;;;;;;;8.46;66.94;100588.22;5049647;27;96781;-73
2021/04/17 11:26:17;;;;;;;23.60;10.85;;;;;;;8.41;67.27;100595.28;5050038;27;96893;-73